sensor_id;sensor_type;location;lat;lon;timestamp;noise_LAeq;noise_LA_min;noise_LA_max;noise_LA01;noise_LA95
61249;Laerm;47119;49.130;9.218;2023-09-30T00:01:18;52.91;51.35;56.17;;
61249;Laerm;47119;49.130;9.218;2023-09-30T00:03:51;52.81;51.41;56.36;;
61249;Laerm;47119;49.130;9.218;2023-09-30T00:06:18;52.97;51.59;56.04;;
61249;Laerm;47119;49.130;9.218;2023-09-30T00:08:47;52.94;51.71;55.91;;
61249;Laerm;47119;49.130;9.218;2023-09-30T00:11:18;52.95;51.26;55.55;;
61249;Laerm;47119;49.130;9.218;2023-09-30T00:13:49;52.98;51.42;56.41;;
61249;Laerm;47119;49.130;9.218;2023-09-30T00:16:19;52.90;51.45;56.06;;
61249;Laerm;47119;49.130;9.218;2023-09-30T00:18:55;52.93;51.58;56.10;;
61249;Laerm;47119;49.130;9.218;2023-09-30T00:21:28;52.93;51.49;57.49;;
61249;Laerm;47119;49.130;9.218;2023-09-30T00:23:55;52.93;51.28;56.15;;
61249;Laerm;47119;49.130;9.218;2023-09-30T00:26:23;52.97;51.67;56.21;;
61249;Laerm;47119;49.130;9.218;2023-09-30T00:28:51;52.92;51.47;56.95;;
61249;Laerm;47119;49.130;9.218;2023-09-30T00:31:18;52.89;51.49;56.29;;
61249;Laerm;47119;49.130;9.218;2023-09-30T00:33:45;52.85;51.66;55.95;;
61249;Laerm;47119;49.130;9.218;2023-09-30T00:36:11;52.88;51.42;55.65;;
61249;Laerm;47119;49.130;9.218;2023-09-30T00:38:39;52.83;51.40;56.69;;
61249;Laerm;47119;49.130;9.218;2023-09-30T00:41:06;52.79;51.52;55.80;;
61249;Laerm;47119;49.130;9.218;2023-09-30T00:43:35;52.84;51.48;55.90;;
61249;Laerm;47119;49.130;9.218;2023-09-30T00:46:26;52.83;51.52;56.02;;
61249;Laerm;47119;49.130;9.218;2023-09-30T00:48:59;52.91;51.50;55.48;;
61249;Laerm;47119;49.130;9.218;2023-09-30T00:51:28;53.05;51.82;55.89;;
61249;Laerm;47119;49.130;9.218;2023-09-30T00:54:01;52.80;51.28;57.42;;
61249;Laerm;47119;49.130;9.218;2023-09-30T00:56:30;52.67;51.09;56.04;;
61249;Laerm;47119;49.130;9.218;2023-09-30T00:58:59;52.67;51.25;56.07;;
61249;Laerm;47119;49.130;9.218;2023-09-30T01:01:26;52.72;51.52;55.84;;
61249;Laerm;47119;49.130;9.218;2023-09-30T01:03:54;52.74;51.46;55.94;;
61249;Laerm;47119;49.130;9.218;2023-09-30T01:06:23;52.76;51.58;55.80;;
61249;Laerm;47119;49.130;9.218;2023-09-30T01:08:50;52.75;51.24;55.63;;
61249;Laerm;47119;49.130;9.218;2023-09-30T01:11:21;52.68;51.40;55.50;;
61249;Laerm;47119;49.130;9.218;2023-09-30T01:13:48;52.71;51.54;55.70;;
61249;Laerm;47119;49.130;9.218;2023-09-30T01:16:16;52.73;51.22;55.70;;
61249;Laerm;47119;49.130;9.218;2023-09-30T01:18:43;52.69;51.24;56.05;;
61249;Laerm;47119;49.130;9.218;2023-09-30T01:21:11;52.62;51.36;55.50;;
61249;Laerm;47119;49.130;9.218;2023-09-30T01:23:42;52.63;51.19;55.65;;
61249;Laerm;47119;49.130;9.218;2023-09-30T01:26:13;52.65;51.07;55.72;;
61249;Laerm;47119;49.130;9.218;2023-09-30T01:28:41;52.53;51.25;56.26;;
61249;Laerm;47119;49.130;9.218;2023-09-30T01:31:09;52.44;51.03;55.42;;
61249;Laerm;47119;49.130;9.218;2023-09-30T01:33:38;52.43;50.90;55.70;;
61249;Laerm;47119;49.130;9.218;2023-09-30T01:36:10;52.53;51.10;55.94;;
61249;Laerm;47119;49.130;9.218;2023-09-30T01:38:37;52.46;50.98;55.64;;
61249;Laerm;47119;49.130;9.218;2023-09-30T01:41:07;52.47;51.07;55.96;;
61249;Laerm;47119;49.130;9.218;2023-09-30T01:43:38;52.50;51.24;55.16;;
61249;Laerm;47119;49.130;9.218;2023-09-30T01:46:07;52.49;51.03;56.20;;
61249;Laerm;47119;49.130;9.218;2023-09-30T01:48:36;52.54;51.13;55.74;;
61249;Laerm;47119;49.130;9.218;2023-09-30T01:51:05;52.71;51.33;55.32;;
61249;Laerm;47119;49.130;9.218;2023-09-30T01:53:32;52.53;51.08;55.50;;
61249;Laerm;47119;49.130;9.218;2023-09-30T01:56:04;52.61;51.25;55.99;;
61249;Laerm;47119;49.130;9.218;2023-09-30T01:58:35;52.57;51.22;56.40;;
61249;Laerm;47119;49.130;9.218;2023-09-30T02:01:03;52.64;51.30;55.71;;
61249;Laerm;47119;49.130;9.218;2023-09-30T02:03:30;52.66;51.34;55.93;;
61249;Laerm;47119;49.130;9.218;2023-09-30T02:06:01;52.71;51.47;56.01;;
61249;Laerm;47119;49.130;9.218;2023-09-30T02:08:32;52.70;51.31;55.55;;
61249;Laerm;47119;49.130;9.218;2023-09-30T02:11:01;52.52;51.19;55.39;;
61249;Laerm;47119;49.130;9.218;2023-09-30T02:13:28;52.62;51.42;55.01;;
61249;Laerm;47119;49.130;9.218;2023-09-30T02:15:56;52.63;51.16;55.38;;
61249;Laerm;47119;49.130;9.218;2023-09-30T02:18:23;52.62;51.33;55.40;;
61249;Laerm;47119;49.130;9.218;2023-09-30T02:20:50;52.69;51.53;55.46;;
61249;Laerm;47119;49.130;9.218;2023-09-30T02:23:19;52.56;51.19;55.23;;
61249;Laerm;47119;49.130;9.218;2023-09-30T02:25:46;52.46;51.03;55.30;;
61249;Laerm;47119;49.130;9.218;2023-09-30T02:28:16;52.53;51.02;55.43;;
61249;Laerm;47119;49.130;9.218;2023-09-30T02:30:43;52.50;50.87;55.37;;
61249;Laerm;47119;49.130;9.218;2023-09-30T02:33:11;52.39;50.98;55.48;;
61249;Laerm;47119;49.130;9.218;2023-09-30T02:35:44;52.55;51.28;55.54;;
61249;Laerm;47119;49.130;9.218;2023-09-30T02:38:11;52.40;50.96;55.40;;
61249;Laerm;47119;49.130;9.218;2023-09-30T02:40:39;52.43;50.87;55.18;;
61249;Laerm;47119;49.130;9.218;2023-09-30T02:43:10;52.34;50.95;55.11;;
61249;Laerm;47119;49.130;9.218;2023-09-30T02:45:37;52.41;50.95;56.18;;
61249;Laerm;47119;49.130;9.218;2023-09-30T02:48:06;52.37;50.97;55.87;;
61249;Laerm;47119;49.130;9.218;2023-09-30T02:50:35;52.45;50.93;55.42;;
61249;Laerm;47119;49.130;9.218;2023-09-30T02:53:05;52.44;50.96;55.18;;
61249;Laerm;47119;49.130;9.218;2023-09-30T02:55:34;52.44;50.99;56.44;;
61249;Laerm;47119;49.130;9.218;2023-09-30T02:58:06;52.40;51.12;55.25;;
61249;Laerm;47119;49.130;9.218;2023-09-30T03:00:34;52.38;50.86;55.26;;
61249;Laerm;47119;49.130;9.218;2023-09-30T03:03:03;52.43;51.11;55.41;;
61249;Laerm;47119;49.130;9.218;2023-09-30T03:05:31;52.69;51.49;55.64;;
61249;Laerm;47119;49.130;9.218;2023-09-30T03:08:00;52.69;51.46;55.31;;
61249;Laerm;47119;49.130;9.218;2023-09-30T03:10:30;52.72;51.45;55.50;;
61249;Laerm;47119;49.130;9.218;2023-09-30T03:12:59;52.67;51.45;55.63;;
61249;Laerm;47119;49.130;9.218;2023-09-30T03:15:30;52.67;51.23;55.37;;
61249;Laerm;47119;49.130;9.218;2023-09-30T03:17:57;52.64;51.42;55.48;;
61249;Laerm;47119;49.130;9.218;2023-09-30T03:20:27;52.65;51.33;56.86;;
61249;Laerm;47119;49.130;9.218;2023-09-30T03:22:54;52.48;51.19;55.65;;
61249;Laerm;47119;49.130;9.218;2023-09-30T03:25:23;52.53;51.16;55.19;;
61249;Laerm;47119;49.130;9.218;2023-09-30T03:27:49;52.48;51.07;55.61;;
61249;Laerm;47119;49.130;9.218;2023-09-30T03:30:17;52.43;50.94;54.90;;
61249;Laerm;47119;49.130;9.218;2023-09-30T03:32:45;52.29;50.80;55.17;;
61249;Laerm;47119;49.130;9.218;2023-09-30T03:35:13;52.35;50.93;54.74;;
61249;Laerm;47119;49.130;9.218;2023-09-30T03:37:43;52.45;51.27;54.94;;
61249;Laerm;47119;49.130;9.218;2023-09-30T03:40:12;52.54;51.23;55.27;;
61249;Laerm;47119;49.130;9.218;2023-09-30T03:42:41;52.49;51.16;56.94;;
61249;Laerm;47119;49.130;9.218;2023-09-30T03:45:12;52.57;51.39;55.56;;
61249;Laerm;47119;49.130;9.218;2023-09-30T03:47:40;52.56;51.09;55.23;;
61249;Laerm;47119;49.130;9.218;2023-09-30T03:50:09;52.51;51.18;55.95;;
61249;Laerm;47119;49.130;9.218;2023-09-30T03:52:45;52.47;51.28;55.22;;
61249;Laerm;47119;49.130;9.218;2023-09-30T03:55:12;52.48;51.24;55.83;;
61249;Laerm;47119;49.130;9.218;2023-09-30T03:57:42;52.54;51.11;55.11;;
61249;Laerm;47119;49.130;9.218;2023-09-30T04:00:12;52.53;51.34;55.41;;
61249;Laerm;47119;49.130;9.218;2023-09-30T04:02:44;52.49;51.20;55.24;;
61249;Laerm;47119;49.130;9.218;2023-09-30T04:05:17;52.44;51.01;55.25;;
61249;Laerm;47119;49.130;9.218;2023-09-30T04:07:47;52.20;50.73;55.22;;
61249;Laerm;47119;49.130;9.218;2023-09-30T04:10:16;52.26;50.99;54.85;;
61249;Laerm;47119;49.130;9.218;2023-09-30T04:12:44;52.23;50.96;54.93;;
61249;Laerm;47119;49.130;9.218;2023-09-30T04:15:12;52.26;51.16;55.05;;
61249;Laerm;47119;49.130;9.218;2023-09-30T04:17:39;52.16;50.67;55.45;;
61249;Laerm;47119;49.130;9.218;2023-09-30T04:20:09;52.18;50.97;54.96;;
61249;Laerm;47119;49.130;9.218;2023-09-30T04:22:36;51.97;50.58;54.44;;
61249;Laerm;47119;49.130;9.218;2023-09-30T04:25:05;52.00;50.67;55.20;;
61249;Laerm;47119;49.130;9.218;2023-09-30T04:27:35;51.70;50.23;54.51;;
61249;Laerm;47119;49.130;9.218;2023-09-30T04:30:05;52.01;50.26;54.57;;
61249;Laerm;47119;49.130;9.218;2023-09-30T04:32:37;51.89;50.69;54.60;;
61249;Laerm;47119;49.130;9.218;2023-09-30T04:35:05;52.01;50.69;54.82;;
61249;Laerm;47119;49.130;9.218;2023-09-30T04:37:33;52.06;50.81;55.13;;
61249;Laerm;47119;49.130;9.218;2023-09-30T04:40:03;52.10;50.78;54.81;;
61249;Laerm;47119;49.130;9.218;2023-09-30T04:42:35;52.14;50.95;55.09;;
61249;Laerm;47119;49.130;9.218;2023-09-30T04:45:05;52.07;50.89;54.76;;
61249;Laerm;47119;49.130;9.218;2023-09-30T04:47:35;51.80;50.55;55.99;;
61249;Laerm;47119;49.130;9.218;2023-09-30T04:50:05;52.09;50.42;54.55;;
61249;Laerm;47119;49.130;9.218;2023-09-30T04:52:33;52.11;50.98;54.95;;
61249;Laerm;47119;49.130;9.218;2023-09-30T04:55:00;52.16;50.89;54.46;;
61249;Laerm;47119;49.130;9.218;2023-09-30T04:57:27;52.16;50.72;55.24;;
61249;Laerm;47119;49.130;9.218;2023-09-30T04:59:56;51.52;49.41;55.01;;
61249;Laerm;47119;49.130;9.218;2023-09-30T05:02:25;51.68;49.74;54.78;;
61249;Laerm;47119;49.130;9.218;2023-09-30T05:04:53;51.20;49.48;54.58;;
61249;Laerm;47119;49.130;9.218;2023-09-30T05:07:20;51.49;50.02;54.08;;
61249;Laerm;47119;49.130;9.218;2023-09-30T05:09:53;51.44;49.70;54.58;;
61249;Laerm;47119;49.130;9.218;2023-09-30T05:12:20;50.73;48.85;54.44;;
61249;Laerm;47119;49.130;9.218;2023-09-30T05:14:47;51.15;49.52;54.33;;
61249;Laerm;47119;49.130;9.218;2023-09-30T05:17:14;50.89;49.00;54.30;;
61249;Laerm;47119;49.130;9.218;2023-09-30T05:19:42;51.72;50.29;54.71;;
61249;Laerm;47119;49.130;9.218;2023-09-30T05:22:10;51.71;50.40;54.53;;
61249;Laerm;47119;49.130;9.218;2023-09-30T05:24:40;51.53;49.55;54.27;;
61249;Laerm;47119;49.130;9.218;2023-09-30T05:27:09;51.02;49.56;53.88;;
61249;Laerm;47119;49.130;9.218;2023-09-30T05:29:38;50.55;48.86;53.50;;
61249;Laerm;47119;49.130;9.218;2023-09-30T05:32:05;50.99;49.33;53.86;;
61249;Laerm;47119;49.130;9.218;2023-09-30T05:34:34;51.34;49.66;54.29;;
61249;Laerm;47119;49.130;9.218;2023-09-30T05:37:04;50.83;49.21;54.01;;
61249;Laerm;47119;49.130;9.218;2023-09-30T05:39:31;50.52;48.38;54.51;;
61249;Laerm;47119;49.130;9.218;2023-09-30T05:42:03;50.25;48.51;54.41;;
61249;Laerm;47119;49.130;9.218;2023-09-30T05:44:36;50.98;49.16;54.22;;
61249;Laerm;47119;49.130;9.218;2023-09-30T05:47:05;50.56;48.28;53.86;;
61249;Laerm;47119;49.130;9.218;2023-09-30T05:49:32;49.84;48.13;53.72;;
61249;Laerm;47119;49.130;9.218;2023-09-30T05:52:01;50.92;47.19;54.83;;
61249;Laerm;47119;49.130;9.218;2023-09-30T05:54:31;51.48;49.93;55.06;;
61249;Laerm;47119;49.130;9.218;2023-09-30T05:57:00;51.64;50.36;54.51;;
61249;Laerm;47119;49.130;9.218;2023-09-30T05:59:28;51.81;50.60;54.41;;
61249;Laerm;47119;49.130;9.218;2023-09-30T06:01:56;51.80;50.55;55.36;;
61249;Laerm;47119;49.130;9.218;2023-09-30T06:04:29;51.72;50.40;54.27;;
61249;Laerm;47119;49.130;9.218;2023-09-30T06:07:05;51.85;50.37;54.47;;
61249;Laerm;47119;49.130;9.218;2023-09-30T06:09:33;51.92;50.80;55.20;;
61249;Laerm;47119;49.130;9.218;2023-09-30T06:12:02;51.87;50.56;55.77;;
61249;Laerm;47119;49.130;9.218;2023-09-30T06:14:34;51.79;50.63;54.51;;
61249;Laerm;47119;49.130;9.218;2023-09-30T06:17:01;51.82;50.46;54.68;;
61249;Laerm;47119;49.130;9.218;2023-09-30T06:19:31;51.82;50.37;54.72;;
61249;Laerm;47119;49.130;9.218;2023-09-30T06:22:02;51.84;50.40;54.40;;
61249;Laerm;47119;49.130;9.218;2023-09-30T06:24:30;51.81;50.47;54.51;;
61249;Laerm;47119;49.130;9.218;2023-09-30T06:26:59;51.86;50.09;54.41;;
61249;Laerm;47119;49.130;9.218;2023-09-30T06:29:28;51.83;50.55;54.80;;
61249;Laerm;47119;49.130;9.218;2023-09-30T06:31:59;51.95;50.57;54.86;;
61249;Laerm;47119;49.130;9.218;2023-09-30T06:34:26;51.89;50.62;54.50;;
61249;Laerm;47119;49.130;9.218;2023-09-30T06:36:58;51.82;50.57;55.28;;
61249;Laerm;47119;49.130;9.218;2023-09-30T06:39:25;51.77;50.45;54.30;;
61249;Laerm;47119;49.130;9.218;2023-09-30T06:41:52;51.70;50.19;54.28;;
61249;Laerm;47119;49.130;9.218;2023-09-30T06:44:20;51.83;50.38;54.80;;
61249;Laerm;47119;49.130;9.218;2023-09-30T06:46:53;51.95;50.70;54.69;;
61249;Laerm;47119;49.130;9.218;2023-09-30T06:49:20;51.92;50.63;54.69;;
61249;Laerm;47119;49.130;9.218;2023-09-30T06:51:47;51.86;50.56;54.38;;
61249;Laerm;47119;49.130;9.218;2023-09-30T06:54:14;51.94;50.51;55.93;;
61249;Laerm;47119;49.130;9.218;2023-09-30T06:56:41;51.95;50.77;54.57;;
61249;Laerm;47119;49.130;9.218;2023-09-30T06:59:08;51.87;50.69;54.81;;
61249;Laerm;47119;49.130;9.218;2023-09-30T07:01:37;51.92;50.57;54.45;;
61249;Laerm;47119;49.130;9.218;2023-09-30T07:04:04;51.93;50.76;54.50;;
61249;Laerm;47119;49.130;9.218;2023-09-30T07:06:34;51.95;50.60;54.49;;
61249;Laerm;47119;49.130;9.218;2023-09-30T07:09:01;51.95;50.73;54.94;;
61249;Laerm;47119;49.130;9.218;2023-09-30T07:11:33;51.91;50.67;54.71;;
61249;Laerm;47119;49.130;9.218;2023-09-30T07:14:00;51.91;50.67;54.82;;
61249;Laerm;47119;49.130;9.218;2023-09-30T07:16:30;51.95;50.74;54.65;;
61249;Laerm;47119;49.130;9.218;2023-09-30T07:19:04;51.91;50.65;54.47;;
61249;Laerm;47119;49.130;9.218;2023-09-30T07:21:33;51.93;50.46;54.80;;
61249;Laerm;47119;49.130;9.218;2023-09-30T07:24:00;51.98;50.75;54.90;;
61249;Laerm;47119;49.130;9.218;2023-09-30T07:26:27;52.00;50.70;54.51;;
61249;Laerm;47119;49.130;9.218;2023-09-30T07:28:57;52.07;50.82;54.95;;
61249;Laerm;47119;49.130;9.218;2023-09-30T07:31:26;51.87;50.42;54.61;;
61249;Laerm;47119;49.130;9.218;2023-09-30T07:33:55;51.79;50.34;55.13;;
61249;Laerm;47119;49.130;9.218;2023-09-30T07:36:29;51.71;50.27;54.32;;
61249;Laerm;47119;49.130;9.218;2023-09-30T07:38:58;51.81;50.41;54.48;;
61249;Laerm;47119;49.130;9.218;2023-09-30T07:41:26;51.84;50.56;54.90;;
61249;Laerm;47119;49.130;9.218;2023-09-30T07:43:53;51.80;50.37;54.85;;
61249;Laerm;47119;49.130;9.218;2023-09-30T07:46:20;51.86;50.54;56.15;;
61249;Laerm;47119;49.130;9.218;2023-09-30T07:48:49;51.84;50.40;54.65;;
61249;Laerm;47119;49.130;9.218;2023-09-30T07:51:16;51.81;50.47;54.71;;
61249;Laerm;47119;49.130;9.218;2023-09-30T07:53:49;51.81;50.31;55.39;;
61249;Laerm;47119;49.130;9.218;2023-09-30T07:56:16;51.90;50.25;54.67;;
61249;Laerm;47119;49.130;9.218;2023-09-30T07:58:43;51.79;50.29;54.96;;
61249;Laerm;47119;49.130;9.218;2023-09-30T08:01:12;51.80;50.13;54.84;;
61249;Laerm;47119;49.130;9.218;2023-09-30T08:03:42;52.00;50.56;55.11;;
61249;Laerm;47119;49.130;9.218;2023-09-30T08:06:12;51.93;50.56;54.96;;
61249;Laerm;47119;49.130;9.218;2023-09-30T08:08:41;51.89;50.50;54.74;;
61249;Laerm;47119;49.130;9.218;2023-09-30T08:11:10;51.78;50.36;55.05;;
61249;Laerm;47119;49.130;9.218;2023-09-30T08:13:40;51.77;50.32;54.65;;
61249;Laerm;47119;49.130;9.218;2023-09-30T08:16:07;51.82;50.42;55.20;;
61249;Laerm;47119;49.130;9.218;2023-09-30T08:18:39;51.76;50.22;54.81;;
61249;Laerm;47119;49.130;9.218;2023-09-30T08:21:09;51.79;50.36;55.24;;
61249;Laerm;47119;49.130;9.218;2023-09-30T08:23:39;51.84;50.30;54.69;;
61249;Laerm;47119;49.130;9.218;2023-09-30T08:26:09;51.85;50.38;55.16;;
61249;Laerm;47119;49.130;9.218;2023-09-30T08:28:36;51.92;50.38;56.02;;
61249;Laerm;47119;49.130;9.218;2023-09-30T08:31:04;51.90;50.29;55.33;;
61249;Laerm;47119;49.130;9.218;2023-09-30T08:33:36;51.87;50.30;55.36;;
61249;Laerm;47119;49.130;9.218;2023-09-30T08:36:06;51.98;50.53;57.50;;
61249;Laerm;47119;49.130;9.218;2023-09-30T08:38:35;52.04;50.84;55.22;;
61249;Laerm;47119;49.130;9.218;2023-09-30T08:41:05;51.99;50.46;55.43;;
61249;Laerm;47119;49.130;9.218;2023-09-30T08:43:38;52.04;50.57;55.19;;
61249;Laerm;47119;49.130;9.218;2023-09-30T08:46:07;52.08;50.48;55.66;;
61249;Laerm;47119;49.130;9.218;2023-09-30T08:48:34;52.12;50.75;55.54;;
61249;Laerm;47119;49.130;9.218;2023-09-30T08:51:02;52.14;50.27;54.86;;
61249;Laerm;47119;49.130;9.218;2023-09-30T08:53:35;52.13;50.71;55.46;;
61249;Laerm;47119;49.130;9.218;2023-09-30T08:56:03;52.20;50.54;55.45;;
61249;Laerm;47119;49.130;9.218;2023-09-30T08:58:37;52.33;50.68;55.95;;
61249;Laerm;47119;49.130;9.218;2023-09-30T09:01:04;52.29;50.82;56.05;;
61249;Laerm;47119;49.130;9.218;2023-09-30T09:03:35;52.28;50.64;55.68;;
61249;Laerm;47119;49.130;9.218;2023-09-30T09:06:04;52.35;50.93;56.60;;
61249;Laerm;47119;49.130;9.218;2023-09-30T09:08:34;52.40;50.73;56.36;;
61249;Laerm;47119;49.130;9.218;2023-09-30T09:11:01;52.39;50.71;55.94;;
61249;Laerm;47119;49.130;9.218;2023-09-30T09:13:48;52.37;46.49;56.05;;
61249;Laerm;47119;49.130;9.218;2023-09-30T09:16:18;52.64;51.11;56.86;;
61249;Laerm;47119;49.130;9.218;2023-09-30T09:18:47;52.62;51.05;56.73;;
61249;Laerm;47119;49.130;9.218;2023-09-30T09:21:17;52.59;51.00;55.88;;
61249;Laerm;47119;49.130;9.218;2023-09-30T09:23:47;52.59;51.06;57.61;;
61249;Laerm;47119;49.130;9.218;2023-09-30T09:26:24;52.46;50.96;55.98;;
61249;Laerm;47119;49.130;9.218;2023-09-30T09:29:00;52.63;50.74;56.13;;
61249;Laerm;47119;49.130;9.218;2023-09-30T09:31:31;52.58;51.06;56.19;;
61249;Laerm;47119;49.130;9.218;2023-09-30T09:34:01;52.52;51.01;56.47;;
61249;Laerm;47119;49.130;9.218;2023-09-30T09:36:39;52.79;51.18;56.32;;
61249;Laerm;47119;49.130;9.218;2023-09-30T09:39:07;52.69;51.19;56.22;;
61249;Laerm;47119;49.130;9.218;2023-09-30T09:41:51;52.61;51.21;56.34;;
61249;Laerm;47119;49.130;9.218;2023-09-30T09:44:24;52.73;51.31;55.81;;
61249;Laerm;47119;49.130;9.218;2023-09-30T09:46:53;52.71;50.79;56.45;;
61249;Laerm;47119;49.130;9.218;2023-09-30T09:49:21;52.61;50.73;56.23;;
61249;Laerm;47119;49.130;9.218;2023-09-30T09:51:52;52.56;46.37;56.51;;
61249;Laerm;47119;49.130;9.218;2023-09-30T10:07:56;52.82;45.94;56.60;;
61249;Laerm;47119;49.130;9.218;2023-09-30T10:10:24;53.02;51.41;56.43;;
61249;Laerm;47119;49.130;9.218;2023-09-30T10:12:52;52.95;51.34;56.09;;
61249;Laerm;47119;49.130;9.218;2023-09-30T10:15:36;52.78;51.15;56.12;;
61249;Laerm;47119;49.130;9.218;2023-09-30T10:18:07;52.82;51.34;56.48;;
61249;Laerm;47119;49.130;9.218;2023-09-30T10:20:37;52.71;51.16;56.61;;
61249;Laerm;47119;49.130;9.218;2023-09-30T10:23:26;52.85;51.18;56.85;;
61249;Laerm;47119;49.130;9.218;2023-09-30T10:26:14;52.65;50.64;56.47;;
61249;Laerm;47119;49.130;9.218;2023-09-30T10:28:44;52.85;51.06;57.41;;
61249;Laerm;47119;49.130;9.218;2023-09-30T10:31:14;53.07;51.52;56.58;;
61249;Laerm;47119;49.130;9.218;2023-09-30T10:34:21;53.08;51.15;57.55;;
61249;Laerm;47119;49.130;9.218;2023-09-30T10:36:51;52.87;51.25;57.26;;
61249;Laerm;47119;49.130;9.218;2023-09-30T10:39:53;53.10;51.15;57.36;;
61249;Laerm;47119;49.130;9.218;2023-09-30T10:42:46;52.88;51.25;57.64;;
61249;Laerm;47119;49.130;9.218;2023-09-30T10:45:44;52.83;51.30;56.61;;
61249;Laerm;47119;49.130;9.218;2023-09-30T10:48:37;53.02;51.27;56.63;;
61249;Laerm;47119;49.130;9.218;2023-09-30T10:51:16;53.16;51.26;57.64;;
61249;Laerm;47119;49.130;9.218;2023-09-30T10:53:48;53.08;51.42;58.22;;
61249;Laerm;47119;49.130;9.218;2023-09-30T10:56:19;52.97;51.34;56.93;;
61249;Laerm;47119;49.130;9.218;2023-09-30T10:58:51;52.75;51.06;56.84;;
61249;Laerm;47119;49.130;9.218;2023-09-30T11:01:23;52.61;45.98;56.72;;
61249;Laerm;47119;49.130;9.218;2023-09-30T11:03:59;52.69;49.79;56.85;;
61249;Laerm;47119;49.130;9.218;2023-09-30T11:06:29;52.92;50.67;57.68;;
61249;Laerm;47119;49.130;9.218;2023-09-30T11:08:58;53.04;50.68;57.34;;
61249;Laerm;47119;49.130;9.218;2023-09-30T11:11:35;53.16;51.45;57.47;;
61249;Laerm;47119;49.130;9.218;2023-09-30T11:14:17;53.53;51.60;57.32;;
61249;Laerm;47119;49.130;9.218;2023-09-30T11:16:45;53.61;51.94;57.40;;
61249;Laerm;47119;49.130;9.218;2023-09-30T11:19:13;53.68;51.92;58.47;;
61249;Laerm;47119;49.130;9.218;2023-09-30T11:21:41;53.42;51.67;58.14;;
61249;Laerm;47119;49.130;9.218;2023-09-30T11:24:10;52.82;50.77;57.82;;
61249;Laerm;47119;49.130;9.218;2023-09-30T11:26:41;52.43;50.51;57.14;;
61249;Laerm;47119;49.130;9.218;2023-09-30T11:29:13;52.57;50.43;57.46;;
61249;Laerm;47119;49.130;9.218;2023-09-30T11:31:43;52.07;49.77;55.73;;
61249;Laerm;47119;49.130;9.218;2023-09-30T11:34:13;51.79;49.70;56.61;;
61249;Laerm;47119;49.130;9.218;2023-09-30T11:36:48;51.93;50.04;56.89;;
61249;Laerm;47119;49.130;9.218;2023-09-30T11:39:22;52.17;49.90;57.40;;
61249;Laerm;47119;49.130;9.218;2023-09-30T11:41:52;51.90;49.49;56.89;;
61249;Laerm;47119;49.130;9.218;2023-09-30T11:53:18;52.55;50.24;56.79;;
61249;Laerm;47119;49.130;9.218;2023-09-30T12:14:20;51.77;49.11;58.49;;
61249;Laerm;47119;49.130;9.218;2023-09-30T12:17:16;52.33;50.33;57.76;;
61249;Laerm;47119;49.130;9.218;2023-09-30T12:20:59;52.45;50.18;57.01;;
61249;Laerm;47119;49.130;9.218;2023-09-30T12:24:24;51.72;49.35;56.98;;
61249;Laerm;47119;49.130;9.218;2023-09-30T12:27:12;52.28;46.28;57.25;;
61249;Laerm;47119;49.130;9.218;2023-09-30T12:35:22;52.26;50.04;58.72;;
61249;Laerm;47119;49.130;9.218;2023-09-30T14:30:52;53.05;50.21;58.69;;
61249;Laerm;47119;49.130;9.218;2023-09-30T14:33:20;52.81;50.31;59.04;;
61249;Laerm;47119;49.130;9.218;2023-09-30T14:35:49;52.78;50.32;58.86;;
61249;Laerm;47119;49.130;9.218;2023-09-30T14:38:59;52.88;50.36;58.71;;
61249;Laerm;47119;49.130;9.218;2023-09-30T14:42:43;52.55;50.17;59.74;;
61249;Laerm;47119;49.130;9.218;2023-09-30T14:45:11;53.02;50.86;57.92;;
61249;Laerm;47119;49.130;9.218;2023-09-30T14:48:04;52.91;50.70;58.71;;
61249;Laerm;47119;49.130;9.218;2023-09-30T14:50:51;53.00;50.48;59.43;;
61249;Laerm;47119;49.130;9.218;2023-09-30T14:53:19;53.31;51.07;59.74;;
61249;Laerm;47119;49.130;9.218;2023-09-30T14:56:03;52.94;49.92;59.87;;
61249;Laerm;47119;49.130;9.218;2023-09-30T14:58:34;52.97;50.76;60.64;;
61249;Laerm;47119;49.130;9.218;2023-09-30T15:01:33;52.86;50.47;59.67;;
61249;Laerm;47119;49.130;9.218;2023-09-30T15:04:23;52.67;50.01;58.29;;
61249;Laerm;47119;49.130;9.218;2023-09-30T15:07:54;53.04;50.68;58.87;;
61249;Laerm;47119;49.130;9.218;2023-09-30T15:10:23;53.38;51.04;57.57;;
61249;Laerm;47119;49.130;9.218;2023-09-30T15:14:05;53.01;46.37;59.52;;
61249;Laerm;47119;49.130;9.218;2023-09-30T15:17:21;53.08;50.66;59.90;;
61249;Laerm;47119;49.130;9.218;2023-09-30T15:20:24;53.08;50.55;58.11;;
61249;Laerm;47119;49.130;9.218;2023-09-30T15:22:52;53.10;50.96;59.16;;
61249;Laerm;47119;49.130;9.218;2023-09-30T15:25:19;53.18;50.81;57.76;;
61249;Laerm;47119;49.130;9.218;2023-09-30T15:27:54;53.14;51.13;58.03;;
61249;Laerm;47119;49.130;9.218;2023-09-30T15:30:58;53.11;50.76;59.14;;
61249;Laerm;47119;49.130;9.218;2023-09-30T15:33:28;53.04;50.72;57.47;;
61249;Laerm;47119;49.130;9.218;2023-09-30T15:35:56;53.18;50.79;58.07;;
61249;Laerm;47119;49.130;9.218;2023-09-30T15:38:23;53.36;51.20;60.17;;
61249;Laerm;47119;49.130;9.218;2023-09-30T15:40:56;53.60;51.54;58.58;;
61249;Laerm;47119;49.130;9.218;2023-09-30T15:43:24;53.17;51.07;58.09;;
61249;Laerm;47119;49.130;9.218;2023-09-30T15:45:55;53.40;51.00;59.75;;
61249;Laerm;47119;49.130;9.218;2023-09-30T15:48:24;53.79;46.52;58.70;;
61249;Laerm;47119;49.130;9.218;2023-09-30T15:50:57;53.45;51.28;59.02;;
61249;Laerm;47119;49.130;9.218;2023-09-30T15:53:28;53.53;51.30;59.76;;
61249;Laerm;47119;49.130;9.218;2023-09-30T15:56:00;53.47;51.31;59.31;;
61249;Laerm;47119;49.130;9.218;2023-09-30T15:58:30;53.00;50.54;59.00;;
61249;Laerm;47119;49.130;9.218;2023-09-30T16:05:50;53.29;51.06;59.52;;
61249;Laerm;47119;49.130;9.218;2023-09-30T16:17:32;53.11;51.00;59.46;;
61249;Laerm;47119;49.130;9.218;2023-09-30T16:21:05;53.23;50.79;59.38;;
61249;Laerm;47119;49.130;9.218;2023-09-30T16:44:59;53.76;51.28;58.71;;
61249;Laerm;47119;49.130;9.218;2023-09-30T17:09:08;54.18;52.14;58.54;;
61249;Laerm;47119;49.130;9.218;2023-09-30T17:26:15;54.26;52.79;58.57;;
61249;Laerm;47119;49.130;9.218;2023-09-30T17:28:42;54.18;52.55;58.86;;
61249;Laerm;47119;49.130;9.218;2023-09-30T17:31:10;54.00;52.37;57.73;;
61249;Laerm;47119;49.130;9.218;2023-09-30T17:33:38;53.88;52.32;57.85;;
61249;Laerm;47119;49.130;9.218;2023-09-30T17:36:07;53.97;52.44;57.90;;
61249;Laerm;47119;49.130;9.218;2023-09-30T17:38:35;54.03;52.52;57.84;;
61249;Laerm;47119;49.130;9.218;2023-09-30T17:41:06;53.89;52.21;57.83;;
61249;Laerm;47119;49.130;9.218;2023-09-30T17:43:36;53.93;52.18;57.32;;
61249;Laerm;47119;49.130;9.218;2023-09-30T17:46:10;53.93;52.46;58.00;;
61249;Laerm;47119;49.130;9.218;2023-09-30T17:48:40;53.87;52.35;57.34;;
61249;Laerm;47119;49.130;9.218;2023-09-30T17:51:14;53.84;52.21;58.54;;
61249;Laerm;47119;49.130;9.218;2023-09-30T17:53:45;53.80;52.26;58.30;;
61249;Laerm;47119;49.130;9.218;2023-09-30T17:56:14;53.75;52.30;57.62;;
61249;Laerm;47119;49.130;9.218;2023-09-30T17:58:42;53.68;52.09;57.46;;
61249;Laerm;47119;49.130;9.218;2023-09-30T18:01:10;53.71;51.78;57.37;;
61249;Laerm;47119;49.130;9.218;2023-09-30T18:03:39;53.80;52.34;57.70;;